Time;durP1;ratioP1;P1;durP2;ratioP2;P2;SDS_P1;SDS_P2;PMS_P1;PMS_P2;Temp;Humidity;BMP_temperature;BMP_pressure;BME280_temperature;BME280_humidity;BME280_pressure;Samples;Min_cycle;Max_cycle;Signal;HPM_P1;HPM_P2
2022/11/23 00:01:28;;;;;;;6.30;3.60;;;;;;;1.66;78.89;98898.05;24419;1332;3026103;-63
2022/11/23 00:04:00;;;;;;;7.90;3.90;;;;;;;2.23;76.86;98908.19;24505;1338;3027707;-63
2022/11/23 00:06:30;;;;;;;9.10;4.00;;;;;;;2.52;75.10;98916.67;24424;1333;3030069;-63
2022/11/23 00:08:58;;;;;;;12.60;3.90;;;;;;;2.45;74.73;98925.23;24478;1325;3027450;-64
2022/11/23 00:11:28;;;;;;;12.90;5.10;;;;;;;2.07;75.33;98924.82;24479;1333;3050294;-61
2022/11/23 00:13:57;;;;;;;7.10;4.40;;;;;;;1.86;76.20;98938.83;24452;1333;3027928;-63
2022/11/23 00:16:29;;;;;;;7.10;4.10;;;;;;;1.62;76.67;98949.11;24454;1333;3027369;-62
2022/11/23 00:19:00;;;;;;;8.30;4.90;;;;;;;1.47;77.27;98956.34;24441;1333;3029687;-62
2022/11/23 00:21:30;;;;;;;9.50;4.90;;;;;;;1.45;77.30;98941.55;24429;1335;3029350;-64
2022/11/23 00:23:59;;;;;;;8.30;4.40;;;;;;;1.26;78.34;98943.52;24399;1333;3028199;-61
2022/11/23 00:26:28;;;;;;;8.90;4.70;;;;;;;1.19;78.52;98955.30;24477;1325;3027209;-62
2022/11/23 00:28:57;;;;;;;4.80;2.80;;;;;;;1.05;79.46;98953.13;24413;1333;3051505;-62
2022/11/23 00:31:29;;;;;;;7.50;3.50;;;;;;;1.64;78.33;98946.46;24426;1332;3028171;-62
2022/11/23 00:33:58;;;;;;;9.50;4.40;;;;;;;2.49;76.12;98948.79;24439;1342;3027377;-62
2022/11/23 00:36:28;;;;;;;8.80;4.90;;;;;;;2.44;74.96;98957.59;24398;1334;3026588;-60
2022/11/23 00:38:57;;;;;;;10.70;5.00;;;;;;;2.16;75.70;98966.51;24415;1319;3029451;-62
2022/11/23 00:41:28;;;;;;;10.60;5.90;;;;;;;2.04;76.11;98964.69;24436;1335;3050666;-61
2022/11/23 00:43:57;;;;;;;10.80;5.50;;;;;;;1.95;75.93;98967.39;24384;1333;3029650;-61
2022/11/23 00:46:26;;;;;;;9.90;4.70;;;;;;;1.65;76.94;98960.44;24466;1336;3053466;-60
2022/11/23 00:48:57;;;;;;;9.10;4.70;;;;;;;1.54;77.09;98964.21;24434;1339;3026556;-63
2022/11/23 00:51:30;;;;;;;8.80;4.50;;;;;;;1.44;77.25;98974.70;24471;1324;3027732;-62
2022/11/23 00:53:59;;;;;;;8.40;4.40;;;;;;;1.03;78.07;98977.86;24442;1336;3026807;-63
2022/11/23 00:56:30;;;;;;;9.30;5.50;;;;;;;0.90;78.40;98969.41;24422;1335;3027536;-62
2022/11/23 00:58:59;;;;;;;9.00;5.30;;;;;;;0.59;79.34;98983.92;24417;1335;3028168;-62
2022/11/23 01:01:32;;;;;;;4.60;2.40;;;;;;;0.47;80.20;98985.80;24472;1328;3025415;-62
2022/11/23 01:04:04;;;;;;;7.20;3.70;;;;;;;1.27;78.58;98971.77;24452;1333;3026102;-63
2022/11/23 01:06:38;;;;;;;10.80;4.10;;;;;;;1.52;76.63;98971.01;24447;1335;3028426;-62
2022/11/23 01:09:16;;;;;;;7.20;4.20;;;;;;;1.76;75.66;98974.04;24392;1326;3049621;-62
2022/11/23 01:11:46;;;;;;;7.50;4.10;;;;;;;1.74;75.23;98974.10;24419;1337;3069833;-63
2022/11/23 01:14:16;;;;;;;9.50;4.20;;;;;;;1.52;75.11;98979.30;24498;1336;3027536;-62
2022/11/23 01:16:45;;;;;;;6.80;3.70;;;;;;;1.07;76.20;98983.59;24462;1326;3029479;-61
2022/11/23 01:19:18;;;;;;;7.30;4.40;;;;;;;1.14;75.97;98991.84;24445;1332;3069509;-62
2022/11/23 01:21:50;;;;;;;11.70;4.70;;;;;;;0.74;76.98;98992.66;24528;1334;3051195;-62
2022/11/23 01:24:20;;;;;;;10.50;4.90;;;;;;;0.64;77.37;99003.42;24461;1324;3027442;-61
2022/11/23 01:26:51;;;;;;;8.50;4.70;;;;;;;0.66;77.45;99006.66;24439;1334;3070259;-61
2022/11/23 01:29:22;;;;;;;10.10;5.30;;;;;;;0.66;77.02;99001.81;24458;1335;3026623;-61
2022/11/23 01:31:51;;;;;;;9.60;5.30;;;;;;;0.64;77.26;99002.75;24460;1334;3030843;-62
2022/11/23 01:34:21;;;;;;;9.80;4.90;;;;;;;0.64;76.95;99005.67;24455;1327;3029541;-62
2022/11/23 01:36:50;;;;;;;7.90;4.10;;;;;;;0.56;77.40;99013.98;24510;1332;3028645;-64
2022/11/23 01:39:22;;;;;;;5.80;3.30;;;;;;;0.50;77.91;99013.30;24479;1341;3056961;-61
2022/11/23 01:41:51;;;;;;;6.40;3.60;;;;;;;1.27;76.70;98997.83;24472;1327;3029520;-60
2022/11/23 01:44:29;;;;;;;7.20;3.80;;;;;;;1.93;73.94;98993.00;24493;1333;3049335;-62
2022/11/23 01:46:59;;;;;;;8.50;4.10;;;;;;;2.11;72.36;98995.19;24521;1333;3056458;-62
2022/11/23 01:49:44;;;;;;;8.60;4.60;;;;;;;2.01;72.45;98996.20;24458;1333;3053175;-62
2022/11/23 01:52:22;;;;;;;9.40;5.00;;;;;;;1.93;72.83;98993.55;24467;1334;3053999;-61
2022/11/23 01:54:55;;;;;;;8.50;5.00;;;;;;;1.60;73.29;98994.27;24409;1327;3051314;-62
2022/11/23 01:57:27;;;;;;;8.80;5.10;;;;;;;1.32;74.68;99007.53;24522;1341;3054124;-62
2022/11/23 01:59:56;;;;;;;11.70;6.20;;;;;;;1.09;75.03;99017.86;24523;1334;3027423;-61
2022/11/23 02:02:25;;;;;;;11.70;5.90;;;;;;;0.99;75.74;99017.11;24434;1325;3027538;-62
2022/11/23 02:04:55;;;;;;;10.80;5.70;;;;;;;1.09;75.06;99012.52;24476;1336;3053262;-62
2022/11/23 02:07:24;;;;;;;10.70;5.40;;;;;;;0.93;75.17;99024.17;24501;1327;3029215;-61
2022/11/23 02:09:55;;;;;;;8.40;4.90;;;;;;;0.78;75.43;99034.94;24454;1326;3051501;-61
2022/11/23 02:12:27;;;;;;;11.10;6.30;;;;;;;0.72;75.34;99030.45;24425;1335;3030003;-62
2022/11/23 02:14:56;;;;;;;9.00;5.00;;;;;;;0.73;75.46;99032.52;24486;1332;3028484;-63
2022/11/23 02:17:25;;;;;;;14.10;7.40;;;;;;;0.56;76.08;99041.24;24489;1325;3029917;-61
2022/11/23 02:20:09;;;;;;;11.90;5.80;;;;;;;0.58;76.09;99039.11;24525;1326;3053574;-62
2022/11/23 02:22:43;;;;;;;;;;;;;;;0.57;76.04;99042.58;24424;1336;3050325;-63
2022/11/23 02:25:18;;;;;;;12.50;6.10;;;;;;;0.66;75.82;99044.05;24481;1333;3069557;-62
2022/11/23 02:27:50;;;;;;;10.90;5.40;;;;;;;0.45;75.99;99044.95;24507;1340;3051144;-63
2022/11/23 02:30:21;;;;;;;16.20;5.60;;;;;;;0.56;75.53;99054.34;24464;1335;3027213;-63
2022/11/23 02:32:50;;;;;;;7.80;4.10;;;;;;;0.57;75.38;99055.84;24481;1326;3027852;-62
2022/11/23 02:35:20;;;;;;;7.40;4.00;;;;;;;1.18;74.06;99043.31;24538;1343;3050582;-63
2022/11/23 02:37:54;;;;;;;7.20;4.30;;;;;;;1.89;71.81;99023.89;24466;1333;3057388;-63
2022/11/23 02:40:27;;;;;;;9.90;4.70;;;;;;;2.31;70.57;99029.42;24509;1329;3029484;-62
2022/11/23 02:42:58;;;;;;;8.50;4.60;;;;;;;2.02;70.23;99032.29;24518;1320;3054045;-61
2022/11/23 02:45:44;;;;;;;10.00;5.60;;;;;;;1.88;70.80;99046.04;24491;1343;3029299;-61
2022/11/23 02:48:13;;;;;;;8.80;5.20;;;;;;;1.45;71.46;99046.14;24422;1333;3053738;-64
2022/11/23 02:50:42;;;;;;;10.40;5.80;;;;;;;1.27;72.30;99052.36;24492;1320;3027814;-61
2022/11/23 02:53:11;;;;;;;9.00;5.20;;;;;;;1.16;72.99;99052.35;24434;1334;3052316;-61
2022/11/23 02:55:40;;;;;;;7.50;5.00;;;;;;;1.02;73.49;99060.51;24572;1325;3027386;-63
2022/11/23 02:58:09;;;;;;;11.30;5.30;;;;;;;1.05;73.16;99061.09;24437;1331;3029726;-60
2022/11/23 03:00:38;;;;;;;12.20;6.70;;;;;;;1.14;73.31;99060.51;24551;1333;3051408;-61
2022/11/23 03:03:08;;;;;;;9.40;5.40;;;;;;;1.09;73.19;99061.48;24486;1334;3029631;-63
2022/11/23 03:05:37;;;;;;;11.60;6.30;;;;;;;0.89;73.91;99067.77;24453;1339;3027672;-62
2022/11/23 03:08:07;;;;;;;10.40;6.10;;;;;;;0.82;74.44;99077.09;24455;1333;3051679;-62
2022/11/23 03:10:37;;;;;;;9.30;5.30;;;;;;;0.92;74.39;99076.81;24500;1342;3028234;-63
2022/11/23 03:13:07;;;;;;;11.50;5.80;;;;;;;0.99;73.93;99076.27;24446;1335;3028639;-61
2022/11/23 03:15:37;;;;;;;10.40;6.00;;;;;;;0.90;74.49;99076.35;24471;1333;3028981;-63
2022/11/23 03:18:07;;;;;;;13.00;6.90;;;;;;;0.91;74.78;99077.70;24427;1327;3028776;-61
2022/11/23 03:20:37;;;;;;;12.50;6.30;;;;;;;0.88;74.76;99076.77;24475;1333;3028204;-62
2022/11/23 03:23:08;;;;;;;10.60;6.10;;;;;;;0.89;74.60;99076.71;24522;1327;3028114;-62
2022/11/23 03:25:37;;;;;;;21.60;8.30;;;;;;;1.01;74.52;99078.46;24475;1325;3027302;-60
2022/11/23 03:28:06;;;;;;;17.00;8.00;;;;;;;0.91;74.92;99085.65;24449;1333;3057967;-62
2022/11/23 03:30:36;;;;;;;16.50;8.00;;;;;;;1.03;74.17;99092.20;24492;1334;3029263;-64
2022/11/23 03:33:07;;;;;;;16.00;7.80;;;;;;;0.96;74.68;99099.64;24450;1333;3051021;-62
2022/11/23 03:35:38;;;;;;;7.00;3.60;;;;;;;1.12;74.56;99104.04;24493;1339;3027389;-62
2022/11/23 03:38:20;;;;;;;10.60;5.90;;;;;;;1.95;72.68;99098.33;24463;1336;3052961;-62
2022/11/23 03:40:49;;;;;;;8.60;4.40;;;;;;;2.66;70.97;99103.63;24456;1332;3027689;-62
2022/11/23 03:43:31;;;;;;;7.90;5.00;;;;;;;2.91;69.56;99104.86;24400;1328;3058325;-62
2022/11/23 03:46:00;;;;;;;10.20;6.00;;;;;;;2.95;69.24;99111.25;24487;1333;3029361;-65
2022/11/23 03:48:29;;;;;;;11.20;6.00;;;;;;;2.52;69.40;99110.82;24458;1333;3029228;-63
2022/11/23 03:50:59;;;;;;;11.70;6.20;;;;;;;2.21;70.27;99124.30;24424;1325;3056865;-65
2022/11/23 03:53:28;;;;;;;13.60;7.00;;;;;;;2.07;70.72;99128.54;24494;1325;3029786;-63
2022/11/23 03:55:57;;;;;;;8.90;5.50;;;;;;;1.84;70.89;99124.23;24450;1333;3050424;-60
2022/11/23 03:58:27;;;;;;;12.80;6.40;;;;;;;1.76;71.22;99135.17;24450;1333;3029614;-62
2022/11/23 04:00:56;;;;;;;9.70;5.40;;;;;;;1.54;72.01;99133.21;24462;1333;3026690;-62
2022/11/23 04:03:25;;;;;;;10.50;5.60;;;;;;;1.65;71.76;99142.40;24438;1333;3050527;-62
2022/11/23 04:06:11;;;;;;;13.00;6.10;;;;;;;1.42;72.94;99138.92;24419;1332;3056858;-62
2022/11/23 04:08:59;;;;;;;9.90;4.70;;;;;;;1.47;72.56;99140.48;24460;1333;3053742;-62
2022/11/23 04:11:42;;;;;;;7.50;4.10;;;;;;;1.39;72.40;99149.85;24499;1330;3055373;-63
2022/11/23 04:14:12;;;;;;;9.00;4.60;;;;;;;1.31;73.17;99152.67;24485;1326;3052874;-61
2022/11/23 04:16:41;;;;;;;10.40;4.20;;;;;;;1.45;72.89;99154.52;24470;1330;3028528;-63
2022/11/23 04:19:13;;;;;;;7.00;4.40;;;;;;;1.39;72.88;99155.05;24459;1333;3054874;-62
2022/11/23 04:21:42;;;;;;;8.70;4.80;;;;;;;1.33;73.77;99154.00;24449;1327;3029649;-64
2022/11/23 04:24:11;;;;;;;8.00;4.60;;;;;;;1.47;73.16;99158.60;24497;1333;3051833;-63
2022/11/23 08:51:53;;;;;;;10.20;4.30;;;;;;;1.26;80.60;99214.06;30812;1323;3013474;-69
2022/11/23 08:54:23;;;;;;;12.00;6.20;;;;;;;2.45;77.90;99204.39;24426;1337;3029205;-69
2022/11/23 08:56:52;;;;;;;13.50;5.70;;;;;;;2.84;75.04;99194.54;24501;1334;3025624;-63
2022/11/23 08:59:21;;;;;;;12.50;6.90;;;;;;;3.33;75.09;99194.93;24480;1334;3049538;-63
2022/11/23 09:01:51;;;;;;;16.20;6.90;;;;;;;3.46;73.82;99196.89;24450;1334;3028095;-67
2022/11/23 09:04:18;;;;;;;16.00;7.80;;;;;;;3.23;73.46;99192.67;23561;1334;4931375;-64
2022/11/23 09:06:47;;;;;;;16.10;7.80;;;;;;;3.03;74.04;99189.91;24984;1325;3053271;-66
2022/11/23 09:09:16;;;;;;;15.80;7.70;;;;;;;2.79;74.55;99198.48;24486;1331;3027285;-65
2022/11/23 09:11:47;;;;;;;10.70;6.40;;;;;;;2.58;74.12;99185.15;24575;1330;3053449;-66
2022/11/23 09:14:20;;;;;;;13.00;7.20;;;;;;;2.51;75.14;99190.92;24569;1337;3025894;-67
2022/11/23 09:16:50;;;;;;;14.50;6.80;;;;;;;2.32;75.72;99203.78;24509;1333;3026863;-68
2022/11/23 09:19:44;;;;;;;6.30;3.90;;;;;;;2.42;75.79;99203.48;24553;1323;3053442;-67
2022/11/23 09:22:13;;;;;;;8.90;4.50;;;;;;;3.18;74.17;99192.15;24577;1338;3027371;-70
2022/11/23 09:24:44;;;;;;;9.30;5.30;;;;;;;4.09;71.88;99185.37;24586;1337;3027080;-64
2022/11/23 09:27:13;;;;;;;12.00;6.00;;;;;;;4.07;70.78;99181.15;24561;1340;3027775;-68
2022/11/23 09:29:42;;;;;;;14.30;6.10;;;;;;;3.97;70.60;99180.11;24486;1337;3028638;-64
2022/11/23 09:32:11;;;;;;;10.20;5.50;;;;;;;3.69;70.91;99180.65;24513;1333;3026609;-66
2022/11/23 09:34:42;;;;;;;10.80;6.00;;;;;;;3.35;71.64;99179.95;24540;1334;3050529;-64
2022/11/23 09:37:12;;;;;;;12.50;5.80;;;;;;;3.34;71.59;99182.62;24563;1325;3028463;-64
2022/11/23 09:39:42;;;;;;;11.20;6.30;;;;;;;2.98;72.81;99194.93;24559;1334;3029031;-63
2022/11/23 09:42:31;;;;;;;12.70;6.30;;;;;;;3.16;72.34;99191.71;24512;1331;3026585;-65
2022/11/23 09:45:10;;;;;;;11.40;5.80;;;;;;;2.80;73.46;99194.67;24548;1327;3051427;-65
2022/11/23 09:48:01;;;;;;;10.50;5.80;;;;;;;2.80;73.54;99199.30;24543;1339;3053222;-66
2022/11/23 09:50:44;;;;;;;10.40;5.80;;;;;;;2.77;73.66;99184.53;24546;1337;3051583;-69
2022/11/23 09:53:24;;;;;;;11.50;6.20;;;;;;;2.86;73.69;99187.88;24562;1333;3068724;-69
2022/11/23 09:55:53;;;;;;;12.10;6.60;;;;;;;2.93;73.39;99189.20;24525;1332;3050721;-64
2022/11/23 09:58:29;;;;;;;15.10;8.20;;;;;;;2.81;74.37;99203.27;24567;1331;3025858;-65
2022/11/23 10:01:01;;;;;;;12.20;5.90;;;;;;;2.59;75.78;99214.70;24466;1330;3050563;-69
2022/11/23 10:03:55;;;;;;;8.60;5.00;;;;;;;3.29;74.68;99207.19;24541;1329;3053026;-64
2022/11/23 10:06:30;;;;;;;12.20;6.80;;;;;;;3.55;73.12;99206.27;24487;1337;3027572;-69
2022/11/23 10:09:24;;;;;;;11.60;6.20;;;;;;;3.78;72.01;99196.08;24533;1324;3052046;-72
2022/11/23 10:12:04;;;;;;;12.10;6.20;;;;;;;3.62;71.59;99197.87;24532;1334;3050086;-67
2022/11/23 10:15:10;;;;;;;14.00;7.20;;;;;;;3.30;72.21;99195.39;24472;1330;3070454;-68
2022/11/23 10:17:43;;;;;;;14.50;7.00;;;;;;;2.96;73.43;99194.83;24511;1333;3050506;-66
2022/11/23 10:20:20;;;;;;;10.10;6.20;;;;;;;2.62;74.79;99202.69;24536;1325;3025931;-67
2022/11/23 10:22:58;;;;;;;11.30;6.30;;;;;;;2.52;75.63;99199.20;24492;1334;3053911;-67
2022/11/23 10:25:38;;;;;;;11.10;7.10;;;;;;;2.57;75.90;99199.05;24574;1330;3052388;-66
2022/11/23 10:28:17;;;;;;;13.20;7.10;;;;;;;2.71;75.58;99195.46;24532;1330;3050599;-64
2022/11/23 10:31:19;;;;;;;9.90;5.90;;;;;;;2.80;74.93;99186.71;24555;1324;3029804;-61
2022/11/23 10:34:07;;;;;;;13.00;6.20;;;;;;;2.63;75.24;99201.27;24409;1333;3050656;-64
2022/11/23 10:36:37;;;;;;;17.50;7.60;;;;;;;2.68;74.95;99184.14;24460;1337;3068936;-65
2022/11/23 10:39:23;;;;;;;18.80;7.70;;;;;;;2.58;75.38;99190.71;24469;1341;3027595;-64
2022/11/23 10:41:58;;;;;;;14.80;7.60;;;;;;;2.58;75.97;99184.98;24515;1337;3058118;-65
2022/11/23 10:44:33;;;;;;;12.10;6.10;;;;;;;2.48;76.15;99182.04;24560;1340;3051543;-67
2022/11/23 10:47:02;;;;;;;9.90;5.20;;;;;;;2.71;75.29;99180.25;24488;1334;3053139;-66
2022/11/23 10:49:32;;;;;;;8.10;4.00;;;;;;;3.34;74.59;99175.48;24540;1330;3027057;-66
2022/11/23 10:52:04;;;;;;;10.00;5.70;;;;;;;3.76;72.27;99180.58;24566;1335;3026356;-69
2022/11/23 10:54:35;;;;;;;10.40;6.20;;;;;;;3.71;72.07;99190.46;24511;1339;3026745;-61
2022/11/23 10:57:41;;;;;;;8.90;5.40;;;;;;;3.89;71.85;99189.29;24489;1333;3026568;-65
2022/11/23 11:00:14;;;;;;;9.80;5.40;;;;;;;3.93;71.07;99195.35;24540;1333;3050956;-65
2022/11/23 11:02:55;;;;;;;9.90;6.10;;;;;;;3.75;71.28;99185.96;24619;1332;3056527;-68
2022/11/23 11:05:35;;;;;;;13.50;6.90;;;;;;;3.56;71.82;99183.04;24509;1334;3053261;-64
2022/11/23 11:08:18;;;;;;;11.80;6.90;;;;;;;3.40;72.57;99187.39;24470;1334;3052959;-67
2022/11/23 11:11:05;;;;;;;8.90;5.80;;;;;;;3.08;73.64;99194.08;24515;1333;3051373;-68
2022/11/23 11:13:45;;;;;;;10.10;6.30;;;;;;;2.97;73.90;99189.59;24471;1334;3052553;-65
2022/11/23 11:16:23;;;;;;;11.60;6.00;;;;;;;2.80;74.59;99192.23;24488;1333;3049897;-65
2022/11/23 11:18:52;;;;;;;11.40;6.30;;;;;;;2.56;75.95;99193.18;24468;1332;3068436;-69
2022/11/23 11:21:34;;;;;;;9.90;6.60;;;;;;;2.64;76.12;99190.16;24487;1333;3026180;-64
2022/11/23 11:24:29;;;;;;;10.40;6.60;;;;;;;2.60;75.90;99200.99;24405;1330;3057562;-65
2022/11/23 11:27:00;;;;;;;11.10;6.20;;;;;;;2.56;76.38;99195.27;24514;1332;3054370;-64
2022/11/23 11:29:37;;;;;;;10.20;6.00;;;;;;;2.78;75.32;99190.75;24542;1340;3027694;-65
2022/11/23 11:32:37;;;;;;;8.80;5.50;;;;;;;2.84;75.17;99184.85;24511;1328;3051548;-67
2022/11/23 11:35:18;;;;;;;7.80;4.60;;;;;;;3.04;75.10;99183.10;24466;1341;3052765;-66
2022/11/23 11:37:52;;;;;;;6.10;3.40;;;;;;;3.92;72.72;99188.61;24502;1334;3049916;-64
2022/11/23 11:40:33;;;;;;;6.90;4.00;;;;;;;4.71;70.65;99179.81;24531;1339;3070291;-62
2022/11/23 11:43:19;;;;;;;8.80;5.10;;;;;;;4.73;69.62;99170.88;24442;1334;3050359;-66
2022/11/23 11:45:52;;;;;;;9.10;5.20;;;;;;;4.53;69.90;99172.90;24501;1337;3056402;-67
2022/11/23 11:48:23;;;;;;;10.50;5.50;;;;;;;4.35;70.03;99176.41;24483;1337;3026960;-64
2022/11/23 11:50:58;;;;;;;8.90;5.60;;;;;;;4.04;70.46;99175.02;24516;1326;3026126;-71
2022/11/23 11:53:31;;;;;;;10.10;5.60;;;;;;;3.98;70.86;99170.20;24496;1332;3051898;-68
2022/11/23 11:56:23;;;;;;;8.30;5.00;;;;;;;3.98;70.90;99170.23;24449;1334;3052468;-66
2022/11/23 11:59:05;;;;;;;7.90;4.70;;;;;;;3.86;71.31;99165.12;24466;1334;3049424;-62
2022/11/23 12:01:42;;;;;;;7.70;5.10;;;;;;;3.94;71.00;99168.44;24432;1333;3069641;-65
2022/11/23 12:04:49;;;;;;;9.90;5.50;;;;;;;3.80;71.25;99171.59;24479;1340;3049391;-65
2022/11/23 12:07:28;;;;;;;12.40;6.20;;;;;;;3.65;71.79;99175.24;24472;1335;3057666;-65
2022/11/23 12:10:38;;;;;;;12.40;7.10;;;;;;;3.44;73.05;99191.75;24511;1330;3052915;-65
2022/11/23 12:13:18;;;;;;;13.60;7.70;;;;;;;3.43;73.27;99197.36;24444;1324;3053514;-65
2022/11/23 12:15:53;;;;;;;16.10;8.80;;;;;;;3.47;73.11;99195.30;24590;1330;3051236;-67
2022/11/23 12:18:35;;;;;;;15.70;8.00;;;;;;;3.41;73.44;99190.32;24547;1337;3053441;-67
2022/11/23 12:21:25;;;;;;;14.80;8.30;;;;;;;3.34;73.61;99196.12;24512;1331;3049595;-67
2022/11/23 12:24:09;;;;;;;14.00;7.60;;;;;;;3.52;73.47;99189.25;24541;1332;3068842;-65
2022/11/23 12:26:56;;;;;;;16.80;9.50;;;;;;;3.61;72.42;99181.81;24559;1334;3050999;-66
2022/11/23 12:30:01;;;;;;;15.60;9.20;;;;;;;3.50;72.85;99192.94;24517;1338;3057153;-66
2022/11/23 14:35:24;;;;;;;21.90;7.60;;;;;;;2.08;82.03;99260.32;30754;1330;3013719;-62
2022/11/23 14:38:18;;;;;;;18.60;9.20;;;;;;;3.19;79.29;99247.16;24536;1346;3070174;-67
2022/11/23 14:41:07;;;;;;;15.70;9.10;;;;;;;3.98;75.72;99253.92;24527;1340;3051622;-64
2022/11/23 14:43:39;;;;;;;19.90;10.40;;;;;;;3.98;74.11;99253.58;24519;1338;3057201;-66
2022/11/23 14:46:14;;;;;;;19.00;10.40;;;;;;;3.97;74.29;99252.92;24511;1338;3026712;-65
2022/11/23 14:48:40;;;;;;;25.60;12.90;;;;;;;3.88;74.42;99262.05;23971;1340;3053869;-63
2022/11/23 14:51:11;;;;;;;21.40;12.30;;;;;;;3.67;74.52;99270.79;24538;1336;3028122;-65
2022/11/23 14:53:52;;;;;;;28.40;14.40;;;;;;;3.43;75.45;99281.86;24468;1337;3026651;-65
2022/11/23 14:56:38;;;;;;;25.10;14.70;;;;;;;3.26;76.32;99286.08;24462;1333;3050921;-63
2022/11/23 14:59:14;;;;;;;24.30;13.20;;;;;;;3.13;76.65;99290.13;24450;1334;3070822;-62
2022/11/23 15:01:48;;;;;;;26.70;14.70;;;;;;;3.03;77.12;99289.41;24429;1333;3051766;-66
2022/11/23 15:04:22;;;;;;;27.90;14.90;;;;;;;2.88;77.90;99290.60;24522;1327;3056789;-63
2022/11/23 15:06:53;;;;;;;24.90;13.70;;;;;;;2.81;78.32;99292.36;24506;1334;3026287;-64
2022/11/23 15:09:44;;;;;;;17.80;10.30;;;;;;;2.87;78.58;99287.69;24455;1337;3025449;-63
2022/11/23 15:12:26;;;;;;;15.20;7.70;;;;;;;3.48;76.38;99279.40;24485;1329;3050833;-63
2022/11/23 15:14:58;;;;;;;20.70;10.40;;;;;;;4.18;74.06;99276.05;24515;1333;3054566;-64
2022/11/23 15:17:27;;;;;;;18.30;11.00;;;;;;;4.26;72.78;99273.15;24441;1341;3029977;-64
2022/11/23 15:20:00;;;;;;;28.30;14.40;;;;;;;4.17;72.68;99268.29;24471;1333;3027637;-62
2022/11/23 15:22:36;;;;;;;28.90;14.60;;;;;;;3.94;73.26;99260.50;24551;1335;3052267;-67
2022/11/23 15:25:07;;;;;;;23.70;13.40;;;;;;;3.87;73.72;99249.45;24490;1334;3048624;-64
2022/11/23 15:27:38;;;;;;;24.70;14.00;;;;;;;3.83;73.92;99241.29;24488;1333;3026052;-64
2022/11/23 15:30:17;;;;;;;28.10;14.40;;;;;;;3.75;74.11;99242.27;24459;1340;3027288;-64
2022/11/23 15:59:44;;;;;;;23.90;11.50;;;;;;;2.86;78.05;99225.42;31071;1329;3012811;-64
2022/11/23 16:02:16;;;;;;;22.40;10.00;;;;;;;3.55;76.53;99215.27;24538;1337;3069708;-68
2022/11/23 16:04:45;;;;;;;21.00;11.30;;;;;;;4.29;74.24;99214.25;24484;1338;3027643;-69
2022/11/23 16:07:19;;;;;;;23.10;12.80;;;;;;;4.56;73.23;99204.04;24424;1332;3029201;-66
2022/11/23 16:10:18;;;;;;;25.20;13.10;;;;;;;4.58;72.64;99198.02;24453;1336;3053103;-66
2022/11/23 16:13:01;;;;;;;28.00;14.80;;;;;;;4.46;72.24;99198.52;23879;1340;3054071;-63
2022/11/23 16:15:36;;;;;;;27.70;14.80;;;;;;;4.21;72.32;99204.34;24469;1336;3056447;-66
2022/11/23 16:18:16;;;;;;;25.20;14.80;;;;;;;4.15;72.89;99205.96;24533;1334;3053040;-69
2022/11/23 16:20:57;;;;;;;28.30;16.80;;;;;;;4.05;73.08;99200.81;24597;1336;3054568;-66
2022/11/23 17:43:22;;;;;;;25.00;15.00;;;;;;;4.02;72.90;99232.81;30938;1329;3013551;-72
2022/11/23 17:45:51;;;;;;;20.80;13.10;;;;;;;3.97;72.96;99223.10;24567;1339;3025964;-76
2022/11/23 17:48:20;;;;;;;27.30;14.20;;;;;;;3.88;73.09;99216.50;24576;1339;3026273;-74
2022/11/23 17:50:49;;;;;;;24.80;13.60;;;;;;;3.78;73.44;99216.17;24492;1331;3049471;-73
2022/11/23 17:53:18;;;;;;;23.40;12.40;;;;;;;3.72;73.47;99222.65;24447;1339;3026304;-74
2022/11/23 17:55:47;;;;;;;24.30;12.60;;;;;;;3.54;73.84;99221.57;23861;1337;4356130;-73
2022/11/23 17:58:16;;;;;;;19.70;11.70;;;;;;;3.49;74.16;99225.00;24519;1339;3026515;-77
2022/11/23 18:00:46;;;;;;;21.60;11.60;;;;;;;3.43;74.21;99227.14;24479;1336;3049762;-69
2022/11/23 18:03:15;;;;;;;20.00;11.40;;;;;;;3.31;74.66;99228.41;24540;1328;3027537;-75
2022/11/23 18:05:44;;;;;;;19.80;10.80;;;;;;;3.23;75.22;99233.02;24550;1336;3053342;-73
2022/11/23 18:08:13;;;;;;;19.10;10.90;;;;;;;3.19;75.37;99228.30;24608;1325;3026307;-77
2022/11/23 18:10:42;;;;;;;24.40;11.80;;;;;;;3.08;75.78;99233.54;24565;1330;3051496;-77
2022/11/23 18:13:11;;;;;;;19.90;11.30;;;;;;;3.05;76.29;99231.55;24622;1333;3026041;-72
2022/11/23 18:15:40;;;;;;;18.90;10.60;;;;;;;3.00;76.37;99224.09;24556;1332;3055845;-76
2022/11/23 18:18:09;;;;;;;23.90;12.70;;;;;;;2.97;76.51;99220.21;24648;1316;3027170;-72
2022/11/23 18:20:38;;;;;;;22.30;12.90;;;;;;;2.97;76.63;99217.61;24519;1332;3049753;-76
2022/11/23 18:23:08;;;;;;;23.50;12.20;;;;;;;2.99;76.37;99216.69;24638;1324;3026198;-74
2022/11/23 18:25:38;;;;;;;18.70;11.60;;;;;;;2.92;76.80;99221.41;24593;1333;3068277;-71
2022/11/23 18:28:07;;;;;;;23.40;11.90;;;;;;;2.91;76.79;99216.63;24641;1326;3026520;-76
2022/11/23 18:30:37;;;;;;;21.60;11.00;;;;;;;2.87;76.93;99204.45;24627;1326;3049215;-77
2022/11/23 18:33:06;;;;;;;14.10;8.20;;;;;;;2.96;77.03;99208.12;24552;1325;3026166;-70
2022/11/23 18:35:36;;;;;;;11.50;7.60;;;;;;;3.52;75.47;99207.75;24646;1333;3026469;-76
2022/11/23 18:38:05;;;;;;;15.90;9.50;;;;;;;4.01;73.32;99202.02;24616;1325;3028568;-73
2022/11/23 18:40:34;;;;;;;17.10;10.40;;;;;;;4.25;72.73;99201.95;24576;1327;3069303;-73
2022/11/23 18:43:04;;;;;;;19.90;10.20;;;;;;;4.02;72.14;99204.22;24565;1333;3026355;-71
2022/11/23 18:45:33;;;;;;;18.00;10.60;;;;;;;3.85;72.93;99213.34;24655;1319;3025091;-76
2022/11/23 18:48:04;;;;;;;17.20;10.30;;;;;;;3.66;73.33;99200.17;24750;1333;3066690;-83
2022/11/23 18:50:34;;;;;;;18.30;11.00;;;;;;;3.45;74.14;99193.61;24631;1334;3026190;-76
2022/11/23 18:53:05;;;;;;;22.50;10.80;;;;;;;3.37;74.67;99193.94;24630;1332;3027011;-74
2022/11/23 18:55:35;;;;;;;20.20;10.80;;;;;;;3.26;75.20;99192.41;24791;1333;3025835;-76
2022/11/23 18:58:05;;;;;;;21.30;11.30;;;;;;;3.15;75.65;99195.36;24703;1333;3027084;-74
2022/11/23 19:00:35;;;;;;;18.00;11.00;;;;;;;3.17;75.89;99196.02;24537;1333;3027065;-73
2022/11/23 19:03:04;;;;;;;21.30;12.40;;;;;;;3.04;76.07;99200.44;24568;1333;3027949;-69
2022/11/23 19:05:33;;;;;;;20.50;12.00;;;;;;;2.98;76.65;99202.55;24686;1328;3028061;-76
2022/11/23 19:08:04;;;;;;;21.90;12.40;;;;;;;2.96;76.86;99201.57;24598;1333;3050075;-73
2022/11/23 19:10:36;;;;;;;25.20;12.60;;;;;;;2.87;77.24;99210.70;24635;1333;3027360;-72
2022/11/23 19:13:05;;;;;;;22.40;12.90;;;;;;;2.76;77.82;99213.98;24620;1333;3026574;-74
2022/11/23 19:15:35;;;;;;;23.20;12.70;;;;;;;2.81;78.01;99212.09;24542;1325;3027852;-75
2022/11/23 19:18:05;;;;;;;22.50;12.50;;;;;;;2.83;77.90;99206.50;24604;1334;3026783;-76
2022/11/23 19:20:34;;;;;;;23.80;13.10;;;;;;;2.76;77.89;99202.75;24560;1332;3026417;-72
2022/11/23 19:23:03;;;;;;;20.60;9.50;;;;;;;2.65;78.52;99199.29;24570;1332;3029015;-73
2022/11/23 19:25:33;;;;;;;13.10;7.50;;;;;;;3.11;77.25;99198.64;24569;1333;3048838;-76
2022/11/23 19:28:02;;;;;;;18.70;9.80;;;;;;;3.76;75.10;99200.34;24551;1333;3026266;-76
2022/11/23 19:30:31;;;;;;;19.10;10.60;;;;;;;4.07;74.22;99205.91;24563;1326;3069014;-76
2022/11/23 19:33:00;;;;;;;18.80;10.20;;;;;;;4.03;73.60;99209.37;24623;1333;3025957;-75
2022/11/23 19:35:29;;;;;;;19.70;11.50;;;;;;;3.82;73.83;99212.05;24584;1333;3049347;-74
2022/11/23 19:37:58;;;;;;;19.30;12.00;;;;;;;3.59;74.59;99207.69;24505;1333;3026008;-73
2022/11/23 19:40:30;;;;;;;22.70;11.90;;;;;;;3.39;75.30;99212.21;24495;1343;3053669;-73
2022/11/23 19:42:59;;;;;;;20.40;12.20;;;;;;;3.20;75.93;99210.09;24609;1325;3026201;-74
2022/11/23 19:45:28;;;;;;;20.00;11.80;;;;;;;3.12;76.42;99204.13;24535;1326;3050227;-72
2022/11/23 19:48:00;;;;;;;22.20;11.30;;;;;;;3.12;76.68;99203.98;24524;1333;3028350;-72
2022/11/23 19:50:30;;;;;;;22.40;12.60;;;;;;;3.06;76.81;99195.89;24585;1334;3028345;-75
2022/11/23 19:52:59;;;;;;;22.30;12.40;;;;;;;3.00;77.06;99204.02;24578;1326;3026261;-75
2022/11/23 19:55:28;;;;;;;19.80;12.00;;;;;;;2.91;77.29;99197.58;24586;1332;3026529;-73
2022/11/23 19:57:58;;;;;;;23.10;12.30;;;;;;;2.87;77.45;99192.36;24627;1333;3049046;-81
2022/11/23 20:00:30;;;;;;;20.80;11.90;;;;;;;2.81;77.87;99204.83;24613;1326;3025185;-82
2022/11/23 20:02:59;;;;;;;20.70;11.50;;;;;;;2.84;77.86;99196.78;24616;1338;3027798;-72